SWA4806 KRNO-KSAN
Flight info
| Callsign | SWA4806 |
|---|---|
| Flight time | N/A |
| Altitude | 37000 |
| Route | PVINE5 CRDDZ EHF HUULK COMIX2 |
| Aircraft | B738/M-SDE2E3FGHIRWXY/LB1 |
Departure
| Time | 2026-05-07 20:37 |
|---|---|
| Airport | Reno Tahoe International Airport (KRNO) |
Arrival
| Time | N/A |
|---|---|
| Airport | San Diego International Airport (KSAN) |
| Time | Latitude | Longitude | Altitude | Speed | Heading |
|---|---|---|---|---|---|
| 2026-05-07 20:09 | 39.50543 | -119.77376 | 4410 ft | 0 kts | 182° |
| 2026-05-07 20:24 | 39.50555 | -119.77375 | 4422 ft | 2 kts | 182° |
| 2026-05-07 20:24 | 39.50572 | -119.77375 | 4420 ft | 2 kts | 182° |
| 2026-05-07 20:25 | 39.50588 | -119.77374 | 4421 ft | 2 kts | 180° |
| 2026-05-07 20:25 | 39.50604 | -119.77376 | 4419 ft | 2 kts | 142° |
| 2026-05-07 20:25 | 39.50611 | -119.77388 | 4419 ft | 1 kts | 92° |
| 2026-05-07 20:25 | 39.50612 | -119.77392 | 4420 ft | 0 kts | 90° |
| 2026-05-07 20:28 | 39.50611 | -119.77388 | 4419 ft | 1 kts | 90° |
| 2026-05-07 20:28 | 39.50607 | -119.77311 | 4419 ft | 15 kts | 99° |
| 2026-05-07 20:28 | 39.50590 | -119.77184 | 4421 ft | 9 kts | 105° |
| 2026-05-07 20:29 | 39.50573 | -119.77165 | 4420 ft | 0 kts | 178° |
| 2026-05-07 20:29 | 39.50567 | -119.77163 | 4420 ft | 2 kts | 168° |
| 2026-05-07 20:29 | 39.50513 | -119.77152 | 4419 ft | 17 kts | 175° |
| 2026-05-07 20:29 | 39.50356 | -119.77153 | 4420 ft | 19 kts | 180° |
| 2026-05-07 20:30 | 39.50224 | -119.77152 | 4420 ft | 19 kts | 180° |
| 2026-05-07 20:30 | 39.50095 | -119.77153 | 4417 ft | 18 kts | 180° |
| 2026-05-07 20:30 | 39.49973 | -119.77152 | 4418 ft | 17 kts | 180° |
| 2026-05-07 20:30 | 39.49852 | -119.77153 | 4418 ft | 17 kts | 179° |
| 2026-05-07 20:31 | 39.49781 | -119.77153 | 4416 ft | 9 kts | 181° |
| 2026-05-07 20:31 | 39.49718 | -119.77154 | 4415 ft | 10 kts | 180° |
| 2026-05-07 20:31 | 39.49633 | -119.77154 | 4416 ft | 16 kts | 179° |
| 2026-05-07 20:31 | 39.49501 | -119.77154 | 4418 ft | 20 kts | 180° |
| 2026-05-07 20:32 | 39.49354 | -119.77155 | 4415 ft | 21 kts | 180° |
| 2026-05-07 20:32 | 39.49212 | -119.77155 | 4419 ft | 20 kts | 180° |
| 2026-05-07 20:32 | 39.49073 | -119.77156 | 4419 ft | 20 kts | 180° |
| 2026-05-07 20:32 | 39.48991 | -119.77155 | 4417 ft | 0 kts | 179° |
| 2026-05-07 20:33 | 39.48988 | -119.77155 | 4417 ft | 1 kts | 180° |
| 2026-05-07 20:33 | 39.48941 | -119.77139 | 4417 ft | 11 kts | 139° |
| 2026-05-07 20:33 | 39.48925 | -119.77040 | 4417 ft | 15 kts | 91° |
| 2026-05-07 20:33 | 39.48925 | -119.76837 | 4414 ft | 30 kts | 89° |
| 2026-05-07 20:34 | 39.48926 | -119.76773 | 4412 ft | 0 kts | 89° |
| 2026-05-07 20:36 | 39.48926 | -119.76740 | 4411 ft | 12 kts | 89° |
| 2026-05-07 20:36 | 39.48934 | -119.76717 | 4412 ft | 0 kts | 349° |
| 2026-05-07 20:36 | 39.48941 | -119.76711 | 4412 ft | 0 kts | 48° |
| 2026-05-07 20:36 | 39.48960 | -119.76693 | 4411 ft | 16 kts | 26° |
| 2026-05-07 20:37 | 39.49287 | -119.76681 | 4417 ft | 87 kts | 359° |
| 2026-05-07 20:37 | 39.50148 | -119.76679 | 4414 ft | 159 kts | 2° |
| 2026-05-07 20:37 | 39.51373 | -119.76630 | 4941 ft | 185 kts | 359° |
| 2026-05-07 20:37 | 39.52722 | -119.76554 | 5785 ft | 202 kts | 0° |
| 2026-05-07 20:38 | 39.53645 | -119.76427 | 6457 ft | 197 kts | 358° |
| 2026-05-07 20:38 | 39.54975 | -119.76525 | 7460 ft | 186 kts | 346° |
| 2026-05-07 20:38 | 39.56250 | -119.76759 | 8269 ft | 195 kts | 354° |
| 2026-05-07 20:38 | 39.57718 | -119.76679 | 8544 ft | 226 kts | 358° |
| 2026-05-07 20:39 | 39.59395 | -119.76616 | 8794 ft | 254 kts | 357° |
| 2026-05-07 20:39 | 39.61274 | -119.76573 | 9096 ft | 283 kts | 356° |
| 2026-05-07 20:39 | 39.63217 | -119.77018 | 9783 ft | 286 kts | 330° |
| 2026-05-07 20:39 | 39.64750 | -119.78561 | 10620 ft | 284 kts | 306° |
| 2026-05-07 20:40 | 39.65610 | -119.80943 | 10867 ft | 307 kts | 281° |
| 2026-05-07 20:40 | 39.65932 | -119.83740 | 11417 ft | 318 kts | 277° |
| 2026-05-07 20:40 | 39.66034 | -119.86636 | 12094 ft | 324 kts | 262° |
| 2026-05-07 20:40 | 39.65305 | -119.89392 | 13020 ft | 326 kts | 242° |
| 2026-05-07 20:41 | 39.63895 | -119.91694 | 13731 ft | 337 kts | 224° |
| 2026-05-07 20:41 | 39.61852 | -119.93289 | 14376 ft | 350 kts | 203° |
| 2026-05-07 20:41 | 39.59428 | -119.93829 | 15095 ft | 362 kts | 182° |
| 2026-05-07 20:41 | 39.56891 | -119.93561 | 15770 ft | 368 kts | 176° |
| 2026-05-07 20:42 | 39.54322 | -119.93142 | 16411 ft | 374 kts | 175° |
| 2026-05-07 20:42 | 39.51722 | -119.92674 | 17010 ft | 379 kts | 175° |
| 2026-05-07 20:42 | 39.49092 | -119.92198 | 17676 ft | 384 kts | 175° |
| 2026-05-07 20:42 | 39.46433 | -119.91727 | 18358 ft | 389 kts | 175° |
| 2026-05-07 20:43 | 39.43737 | -119.91264 | 18960 ft | 392 kts | 175° |
| 2026-05-07 20:43 | 39.41010 | -119.90807 | 19590 ft | 395 kts | 175° |
| 2026-05-07 20:43 | 39.38305 | -119.90363 | 20190 ft | 399 kts | 175° |
| 2026-05-07 20:43 | 39.35544 | -119.89916 | 20742 ft | 403 kts | 175° |
| 2026-05-07 20:44 | 39.32751 | -119.89467 | 21334 ft | 407 kts | 175° |
| 2026-05-07 20:44 | 39.29925 | -119.89014 | 21910 ft | 412 kts | 174° |
| 2026-05-07 20:44 | 39.27071 | -119.88555 | 22482 ft | 414 kts | 174° |
| 2026-05-07 20:44 | 39.24213 | -119.88096 | 23097 ft | 416 kts | 174° |
| 2026-05-07 20:45 | 39.21341 | -119.87637 | 23889 ft | 410 kts | 174° |
| 2026-05-07 20:45 | 39.18579 | -119.87193 | 25022 ft | 395 kts | 174° |
| 2026-05-07 20:45 | 39.15839 | -119.86755 | 25444 ft | 402 kts | 174° |
| 2026-05-07 20:45 | 39.13017 | -119.86308 | 25558 ft | 416 kts | 174° |
| 2026-05-07 20:46 | 39.10105 | -119.85844 | 25730 ft | 427 kts | 174° |
| 2026-05-07 20:46 | 39.07106 | -119.85367 | 25858 ft | 439 kts | 174° |
| 2026-05-07 20:46 | 39.04051 | -119.84881 | 26143 ft | 445 kts | 174° |
| 2026-05-07 20:46 | 39.00947 | -119.84387 | 26376 ft | 452 kts | 173° |
| 2026-05-07 20:47 | 38.97842 | -119.83892 | 26710 ft | 457 kts | 173° |
| 2026-05-07 20:47 | 38.94697 | -119.83392 | 27224 ft | 456 kts | 173° |
| 2026-05-07 20:47 | 38.91534 | -119.82890 | 27631 ft | 459 kts | 173° |
| 2026-05-07 20:47 | 38.88366 | -119.82388 | 28057 ft | 460 kts | 173° |
| 2026-05-07 20:48 | 38.85160 | -119.81880 | 28417 ft | 465 kts | 173° |
| 2026-05-07 20:48 | 38.81949 | -119.81372 | 28844 ft | 466 kts | 173° |
| 2026-05-07 20:48 | 38.78711 | -119.80861 | 29169 ft | 469 kts | 173° |
| 2026-05-07 20:48 | 38.75454 | -119.80346 | 29445 ft | 473 kts | 173° |
| 2026-05-07 20:49 | 38.72185 | -119.79831 | 29765 ft | 476 kts | 173° |
| 2026-05-07 20:49 | 38.68890 | -119.79311 | 30075 ft | 478 kts | 173° |
| 2026-05-07 20:49 | 38.65567 | -119.78788 | 30385 ft | 480 kts | 173° |
| 2026-05-07 20:49 | 38.62242 | -119.78264 | 30679 ft | 482 kts | 173° |
| 2026-05-07 20:50 | 38.58931 | -119.77744 | 31023 ft | 476 kts | 173° |
| 2026-05-07 20:50 | 38.52437 | -119.76725 | 31135 ft | 475 kts | 173° |
| 2026-05-07 20:51 | 38.45781 | -119.75682 | 31156 ft | 487 kts | 173° |
| 2026-05-07 20:51 | 38.39021 | -119.74624 | 31143 ft | 488 kts | 173° |
| 2026-05-07 20:52 | 38.32338 | -119.73581 | 31147 ft | 484 kts | 173° |
| 2026-05-07 20:52 | 38.25618 | -119.72342 | 31157 ft | 488 kts | 170° |
| 2026-05-07 20:53 | 38.19001 | -119.70761 | 31155 ft | 484 kts | 169° |
| 2026-05-07 20:53 | 38.12351 | -119.69131 | 31168 ft | 488 kts | 169° |
| 2026-05-07 20:54 | 38.05736 | -119.67557 | 31151 ft | 481 kts | 169° |
| 2026-05-07 20:54 | 37.99144 | -119.66020 | 31156 ft | 486 kts | 169° |
| 2026-05-07 20:55 | 37.92459 | -119.64471 | 31151 ft | 487 kts | 169° |
| 2026-05-07 20:55 | 37.85843 | -119.62940 | 31152 ft | 484 kts | 169° |
| 2026-05-07 20:56 | 37.79172 | -119.61397 | 31142 ft | 488 kts | 169° |
| 2026-05-07 20:56 | 37.72581 | -119.59876 | 31134 ft | 480 kts | 169° |
| 2026-05-07 20:57 | 37.65971 | -119.58341 | 31139 ft | 487 kts | 169° |
| 2026-05-07 20:57 | 37.59336 | -119.56792 | 31115 ft | 478 kts | 169° |
| 2026-05-07 20:58 | 37.52765 | -119.55281 | 31129 ft | 485 kts | 169° |
| 2026-05-07 20:58 | 37.46101 | -119.53758 | 31111 ft | 487 kts | 169° |
| 2026-05-07 20:59 | 37.39450 | -119.52238 | 31110 ft | 484 kts | 169° |
| 2026-05-07 20:59 | 37.32804 | -119.50720 | 31108 ft | 486 kts | 169° |
| 2026-05-07 21:00 | 37.26149 | -119.49204 | 31104 ft | 487 kts | 169° |
| 2026-05-07 21:00 | 35.95954 | -119.19267 | 30952 ft | 493 kts | 169° |